Terminal Aerodrome Forecast
Issued by NWS

Home | Current Version | Previous Version | Text Only | Print | Product List | Glossary Off
Versions: 1 2 3 4 5 6 7 8 9 10 11 12 13 14 15 16 17 18 19

000
FTUS43 KABR 281700
TAFMBG
TAF
KMBG 281720Z 2818/2918 32010KT P6SM OVC200
     FM282200 33025G35KT P6SM OVC200
     FM290100 33025G35KT P6SM OVC012
     FM291400 33012KT P6SM OVC012=

USA.gov is the U.S. government's official web portal to all federal, state and local government web resources and services.